Time;durP1;ratioP1;P1;durP2;ratioP2;P2;SDS_P1;SDS_P2;PMS_P1;PMS_P2;Temp;Humidity;BMP_temperature;BMP_pressure;BME280_temperature;BME280_humidity;BME280_pressure;Samples;Min_cycle;Max_cycle;Signal;HPM_P1;HPM_P2
2023/01/31 00:01:40;;;;;;;;;;;;;;;-144.99;82.39;52623.38;5061101;28;20367;-73
2023/01/31 00:04:08;;;;;;;;;;;;;;;-144.99;83.08;52615.25;5067211;28;20017;-73
2023/01/31 00:06:35;;;;;;;;;;;;;;;-144.99;83.36;52631.53;5060823;28;20511;-75
2023/01/31 00:09:03;;;;;;;;;;;;;;;-144.99;83.34;52586.69;5061709;28;19968;-74
2023/01/31 00:11:30;;;;;;;;;;;;;;;-144.99;83.27;52590.78;5066203;28;20035;-72
2023/01/31 00:13:58;;;;;;;;;;;;;;;-144.99;83.50;52617.28;5066098;28;19969;-72
2023/01/31 00:16:26;;;;;;;;;;;;;;;-144.99;83.27;52615.25;5064914;28;20480;-72
2023/01/31 00:18:52;;;;;;;;;;;;;;;-144.99;83.36;52611.16;5064797;28;19960;-74
2023/01/31 00:21:19;;;;;;;;;;;;;;;-144.99;83.49;52586.69;5065535;28;20362;-75
2023/01/31 00:23:46;;;;;;;;;;;;;;;-144.99;83.44;52582.63;5067662;28;20066;-74
2023/01/31 00:26:14;;;;;;;;;;;;;;;-144.99;83.32;52586.69;5059914;28;19982;-73
2023/01/31 00:28:41;;;;;;;;;;;;;;;-144.99;83.09;52590.78;5066547;28;20478;-73
2023/01/31 00:31:08;;;;;;;;;;;;;;;-144.99;83.66;52586.69;5061742;28;19996;-73
2023/01/31 00:33:36;;;;;;;;;;;;;;;-144.99;83.70;52586.69;5066382;28;19974;-73
2023/01/31 00:36:04;;;;;;;;;;;;;;;-144.99;84.15;52566.31;5063150;28;19943;-74
2023/01/31 00:38:31;;;;;;;;;;;;;;;-144.99;84.82;52558.16;5059905;28;20116;-75
2023/01/31 00:40:57;;;;;;;;;;;;;;;-144.99;84.77;52623.38;5065315;28;19938;-77
2023/01/31 00:43:24;;;;;;;;;;;;;;;-144.99;85.17;52562.25;5062895;28;19993;-74
2023/01/31 00:45:50;;;;;;;;;;;;;;;-144.99;85.71;52570.38;5064935;28;19964;-72
2023/01/31 00:48:17;;;;;;;;;;;;;;;-144.99;86.02;52600.97;5061559;28;20210;-73
2023/01/31 00:50:45;;;;;;;;;;;;;;;-144.99;86.16;52574.47;5047978;28;19952;-73
2023/01/31 00:53:11;;;;;;;;;;;;;;;-144.99;86.69;52592.81;5064818;28;19951;-73
2023/01/31 00:55:37;;;;;;;;;;;;;;;-144.99;87.58;52556.13;5066401;28;20010;-74
2023/01/31 00:58:04;;;;;;;;;;;;;;;-144.99;88.37;52598.94;5063001;28;20030;-73
2023/01/31 01:00:30;;;;;;;;;;;;;;;-144.99;89.73;52598.94;5061004;28;20493;-75
2023/01/31 01:02:57;;;;;;;;;;;;;;;-144.99;90.09;52633.59;5066686;28;19955;-74
2023/01/31 01:05:23;;;;;;;;;;;;;;;-144.99;90.50;52570.38;5060913;28;19936;-75
2023/01/31 01:07:51;;;;;;;;;;;;;;;-144.99;90.63;52582.63;5062091;28;19968;-74
2023/01/31 01:10:18;;;;;;;;;;;;;;;-144.99;90.76;52570.38;5064126;28;20053;-74
2023/01/31 01:12:44;;;;;;;;;;;;;;;-144.99;91.12;52576.50;5065401;28;19944;-74
2023/01/31 01:15:11;;;;;;;;;;;;;;;-144.99;91.24;52594.84;5062694;28;19970;-76
2023/01/31 01:17:37;;;;;;;;;;;;;;;-144.99;91.50;52574.47;5066297;28;19947;-75
2023/01/31 01:20:04;;;;;;;;;;;;;;;-144.99;91.66;52566.31;5063846;28;19957;-74
2023/01/31 01:22:31;;;;;;;;;;;;;;;-144.99;91.76;52582.63;5065472;28;20037;-75
2023/01/31 01:24:59;;;;;;;;;;;;;;;-144.99;91.80;52594.84;5054981;28;19998;-75
2023/01/31 01:27:26;;;;;;;;;;;;;;;-144.99;92.00;52586.69;5065237;28;20002;-75
2023/01/31 01:29:53;;;;;;;;;;;;;;;-144.99;91.88;52564.28;5059165;28;20024;-75
2023/01/31 01:32:20;;;;;;;;;;;;;;;-144.99;92.03;52582.63;5066098;28;20000;-74
2023/01/31 01:34:46;;;;;;;;;;;;;;;-144.99;91.68;52623.38;5066204;28;20103;-75
2023/01/31 01:37:18;;;;;;;;;;;;;;;-144.99;91.95;52603.00;5063858;28;19972;-74
2023/01/31 01:39:45;;;;;;;;;;;;;;;-144.99;92.21;52574.47;5054966;28;19962;-75
2023/01/31 01:42:16;;;;;;;;;;;;;;;-144.99;91.67;52623.38;5064846;28;19974;-74
2023/01/31 01:44:44;;;;;;;;;;;;;;;-144.99;91.42;52550.00;5059997;28;19955;-76
2023/01/31 01:47:13;;;;;;;;;;;;;;;-144.99;91.96;52598.94;5050686;28;20407;-73
2023/01/31 01:49:40;;;;;;;;;;;;;;;-144.99;91.98;52590.78;5063767;28;20059;-75
2023/01/31 01:52:09;;;;;;;;;;;;;;;-144.99;92.41;52598.94;5053427;28;20073;-75
2023/01/31 01:54:36;;;;;;;;;;;;;;;-144.99;92.16;52562.25;5062707;28;19939;-76
2023/01/31 01:57:04;;;;;;;;;;;;;;;-144.99;92.33;52574.47;5059481;28;20035;-75
2023/01/31 01:59:35;;;;;;;;;;;;;;;-144.99;91.95;52598.94;5074715;28;20012;-74
2023/01/31 02:02:01;;;;;;;;;;;;;;;-144.99;91.73;52584.66;5067488;28;19987;-75
2023/01/31 02:04:29;;;;;;;;;;;;;;;-144.99;92.52;52562.25;5065359;28;20058;-75
2023/01/31 02:06:56;;;;;;;;;;;;;;;-144.99;92.24;52545.94;5066025;28;20039;-74
2023/01/31 02:09:29;;;;;;;;;;;;;;;-144.99;92.21;52584.66;5071557;28;19957;-76
2023/01/31 02:11:55;;;;;;;;;;;;;;;-144.99;91.80;52570.38;5072379;28;19939;-74
2023/01/31 02:14:22;;;;;;;;;;;;;;;-144.99;91.28;52578.53;5069133;28;20036;-74
2023/01/31 02:16:50;;;;;;;;;;;;;;;-144.99;91.43;52592.81;5066335;28;20040;-74
2023/01/31 02:19:19;;;;;;;;;;;;;;;-144.99;91.04;52590.78;5069370;28;20006;-75
2023/01/31 02:21:57;;;;;;;;;;;;;;;-144.99;91.51;52598.94;5081430;28;19940;-74
2023/01/31 02:24:44;;;;;;;;;;;;;;;-144.99;91.65;52545.94;5079974;28;19928;-76
2023/01/31 02:27:25;;;;;;;;;;;;;;;-144.99;92.59;52527.59;5079828;28;19993;-75
2023/01/31 02:30:10;;;;;;;;;;;;;;;-144.99;91.86;52558.16;5076301;28;19958;-75
2023/01/31 02:32:48;;;;;;;;;;;;;;;-144.99;92.03;52586.69;5083248;28;19935;-75
2023/01/31 02:35:22;;;;;;;;;;;;;;;-144.99;91.95;52607.09;5080757;28;19957;-75
2023/01/31 02:37:56;;;;;;;;;;;;;;;-144.99;91.79;52590.78;5075941;28;19993;-72
2023/01/31 02:40:26;;;;;;;;;;;;;;;-144.99;91.63;52572.44;5076572;28;19955;-73
2023/01/31 02:42:57;;;;;;;;;;;;;;;-144.99;92.33;52574.47;5071644;28;19952;-75
2023/01/31 02:45:32;;;;;;;;;;;;;;;-144.99;92.22;52576.50;5068821;28;21178;-77
2023/01/31 02:48:07;;;;;;;;;;;;;;;-144.99;92.06;52594.84;5068764;28;19985;-75
2023/01/31 02:50:36;;;;;;;;;;;;;;;-144.99;92.10;52570.38;5063587;28;19956;-75
2023/01/31 02:53:06;;;;;;;;;;;;;;;-144.99;92.16;52586.69;5068125;28;20022;-75
2023/01/31 02:58:21;;;;;;;;;;;;;;;-144.99;93.15;52545.94;5067553;28;20018;-75
2023/01/31 03:00:48;;;;;;;;;;;;;;;-144.99;95.12;52558.16;5102331;22;20002;-76
2023/01/31 03:03:19;;;;;;;;;;;;;;;-144.99;95.68;52584.66;5090146;28;19985;-75
2023/01/31 03:05:56;;;;;;;;;;;;;;;-144.99;95.63;52570.38;5096157;28;19994;-75
2023/01/31 03:08:23;;;;;;;;;;;;;;;-144.99;95.39;52598.94;5093975;28;20038;-73
2023/01/31 03:10:59;;;;;;;;;;;;;;;-144.99;96.12;52584.66;5091530;28;20023;-73
2023/01/31 03:13:34;;;;;;;;;;;;;;;-144.99;96.16;52550.00;5114941;28;19928;-74
2023/01/31 03:18:54;;;;;;;;;;;;;;;-144.99;96.50;52574.47;5083167;28;20453;-75
2023/01/31 03:21:25;;;;;;;;;;;;;;;-144.99;96.78;52588.75;5093896;28;20005;-75
2023/01/31 03:23:53;;;;;;;;;;;;;;;-144.99;97.38;52554.09;5091973;28;19960;-72
2023/01/31 03:26:20;;;;;;;;;;;;;;;-144.99;96.75;52562.25;5092829;28;20043;-74
2023/01/31 03:28:53;;;;;;;;;;;;;;;-144.99;96.29;52554.09;5107562;28;20405;-75
2023/01/31 03:31:21;;;;;;;;;;;;;;;-144.99;96.83;52594.84;5094602;28;19954;-75
2023/01/31 03:33:49;;;;;;;;;;;;;;;-144.99;97.53;52550.00;5091765;28;19985;-75
2023/01/31 03:36:22;;;;;;;;;;;;;;;-144.99;98.45;52572.44;5091541;28;20054;-74
2023/01/31 03:38:52;;;;;;;;;;;;;;;-144.99;98.26;52576.50;5099833;28;19988;-77
2023/01/31 03:41:23;;;;;;;;;;;;;;;-144.99;97.82;52570.38;5086598;28;19994;-75
2023/01/31 03:43:57;;;;;;;;;;;;;;;-144.99;97.97;52558.16;5089607;28;20008;-74
2023/01/31 03:46:27;;;;;;;;;;;;;;;-144.99;97.91;52594.84;5093019;28;19990;-81
2023/01/31 03:48:55;;;;;;;;;;;;;;;-144.99;98.83;52525.56;5111485;28;19944;-75
2023/01/31 03:51:27;;;;;;;;;;;;;;;-144.99;98.81;52590.78;5087180;28;20390;-74
2023/01/31 03:53:54;;;;;;;;;;;;;;;-144.99;98.35;52578.53;5091195;28;19974;-77
2023/01/31 03:56:25;;;;;;;;;;;;;;;-144.99;97.74;52566.31;5088007;28;19984;-78
2023/01/31 03:58:54;;;;;;;;;;;;;;;-144.99;98.33;52562.25;5086049;28;20493;-79
2023/01/31 04:01:22;;;;;;;;;;;;;;;-144.99;98.98;52562.25;5081120;28;20450;-78
2023/01/31 04:03:51;;;;;;;;;;;;;;;-144.99;99.86;52574.47;5091273;28;20025;-76
2023/01/31 04:06:17;;;;;;;;;;;;;;;-144.99;99.09;52568.34;5085467;28;19985;-78
2023/01/31 04:08:45;;;;;;;;;;;;;;;-144.99;98.98;52582.63;5087731;28;20474;-75
2023/01/31 04:11:13;;;;;;;;;;;;;;;-144.99;98.95;52582.63;5081894;28;20486;-75
2023/01/31 04:13:40;;;;;;;;;;;;;;;-144.99;97.95;52594.84;5086849;28;20363;-74
2023/01/31 04:16:07;;;;;;;;;;;;;;;-144.99;97.71;52590.78;5086332;28;19975;-73
2023/01/31 04:18:34;;;;;;;;;;;;;;;-144.99;98.48;52525.56;5086757;28;19986;-73
2023/01/31 04:21:00;;;;;;;;;;;;;;;-144.99;98.61;52574.47;5091180;28;19943;-76
2023/01/31 04:23:26;;;;;;;;;;;;;;;-144.99;98.77;52598.94;5105359;28;19934;-74
2023/01/31 04:25:54;;;;;;;;;;;;;;;-144.99;98.07;52570.38;5092675;28;19994;-72
2023/01/31 04:28:21;;;;;;;;;;;;;;;-144.99;97.43;52521.47;5090624;28;19981;-74
2023/01/31 04:30:51;;;;;;;;;;;;;;;-144.99;97.38;52539.81;5083549;28;20052;-74
2023/01/31 04:33:18;;;;;;;;;;;;;;;-144.99;97.76;52568.34;5085801;28;20037;-74
2023/01/31 04:35:44;;;;;;;;;;;;;;;-144.99;98.65;52574.47;5079569;28;20015;-77
2023/01/31 04:38:11;;;;;;;;;;;;;;;-144.99;98.55;52574.47;5084167;28;19992;-77
2023/01/31 04:40:37;;;;;;;;;;;;;;;-144.99;99.11;52566.31;5074934;28;20449;-73
2023/01/31 04:43:05;;;;;;;;;;;;;;;-144.99;98.86;52586.69;5083713;28;20466;-77
2023/01/31 04:45:32;;;;;;;;;;;;;;;-144.99;99.40;52574.47;5078153;28;20397;-72
2023/01/31 04:47:58;;;;;;;;;;;;;;;-144.99;99.81;52521.47;5082649;28;20031;-76
2023/01/31 04:50:25;;;;;;;;;;;;;;;-144.99;100.00;52560.19;5086073;28;19956;-72
2023/01/31 04:52:51;;;;;;;;;;;;;;;-144.99;100.00;52554.09;5087496;28;20027;-74
2023/01/31 04:55:18;;;;;;;;;;;;;;;-144.99;100.00;52582.63;5080277;28;20035;-75
2023/01/31 04:57:45;;;;;;;;;;;;;;;-144.99;100.00;52566.31;5077949;28;20374;-75
2023/01/31 05:00:13;;;;;;;;;;;;;;;-144.99;100.00;52545.94;5088960;28;19962;-75
2023/01/31 05:02:40;;;;;;;;;;;;;;;-144.99;100.00;52558.16;5091299;28;20035;-76
2023/01/31 05:05:07;;;;;;;;;;;;;;;-144.99;100.00;52586.69;5087469;28;20076;-77
2023/01/31 05:07:33;;;;;;;;;;;;;;;-144.99;100.00;52580.59;5081120;28;20363;-78
2023/01/31 05:10:00;;;;;;;;;;;;;;;-144.99;100.00;52621.34;5082472;28;20425;-75
2023/01/31 05:12:27;;;;;;;;;;;;;;;-144.99;100.00;52582.63;5084376;28;19938;-75
2023/01/31 05:14:53;;;;;;;;;;;;;;;-144.99;100.00;52550.00;5084460;28;19938;-77
2023/01/31 05:17:28;;;;;;;;;;;;;;;-144.99;100.00;52566.31;5081622;28;20023;-75
2023/01/31 05:19:54;;;;;;;;;;;;;;;-144.99;100.00;52564.28;5087173;28;19965;-76
2023/01/31 05:22:22;;;;;;;;;;;;;;;-144.99;100.00;52570.38;5083454;28;20000;-75
2023/01/31 05:24:48;;;;;;;;;;;;;;;-144.99;100.00;52594.84;5079354;28;20388;-75
2023/01/31 05:27:15;;;;;;;;;;;;;;;-144.99;100.00;52550.00;5093512;28;19970;-85
2023/01/31 05:29:42;;;;;;;;;;;;;;;-144.99;100.00;52568.34;5100456;28;20031;-77
2023/01/31 05:32:09;;;;;;;;;;;;;;;-144.99;100.00;52566.31;5077679;28;19935;-77
2023/01/31 05:34:37;;;;;;;;;;;;;;;-144.99;100.00;52550.00;5079955;28;20295;-76
2023/01/31 05:37:04;;;;;;;;;;;;;;;-144.99;100.00;52562.25;5086232;28;19944;-75
2023/01/31 05:39:31;;;;;;;;;;;;;;;-144.99;100.00;52586.69;5095294;28;19962;-74
2023/01/31 05:41:58;;;;;;;;;;;;;;;-144.99;100.00;52598.94;5085737;28;20393;-76
2023/01/31 05:44:24;;;;;;;;;;;;;;;-144.99;100.00;52582.63;5086675;28;20432;-78
2023/01/31 05:46:51;;;;;;;;;;;;;;;-144.99;100.00;52558.16;5080183;28;20008;-76
2023/01/31 05:49:17;;;;;;;;;;;;;;;-144.99;100.00;52572.44;5078679;28;19985;-77
2023/01/31 05:51:45;;;;;;;;;;;;;;;-144.99;100.00;52586.69;5082405;28;20037;-79
2023/01/31 05:54:12;;;;;;;;;;;;;;;-144.99;100.00;52586.69;5087204;28;20030;-75
2023/01/31 05:56:39;;;;;;;;;;;;;;;-144.99;100.00;52613.19;5085307;28;20423;-77
2023/01/31 05:59:05;;;;;;;;;;;;;;;-144.99;100.00;52570.38;5087534;28;19988;-76
2023/01/31 06:01:32;;;;;;;;;;;;;;;-144.99;100.00;52550.00;5084267;28;19964;-76
2023/01/31 06:03:58;;;;;;;;;;;;;;;-144.99;100.00;52594.84;5093497;28;19939;-86
2023/01/31 06:06:25;;;;;;;;;;;;;;;-144.99;100.00;52574.47;5090627;28;19996;-75
2023/01/31 06:08:52;;;;;;;;;;;;;;;-144.99;100.00;52582.63;5081820;28;19975;-76
2023/01/31 06:11:19;;;;;;;;;;;;;;;-144.99;100.00;52566.31;5071307;28;20444;-81
2023/01/31 06:13:48;;;;;;;;;;;;;;;-144.99;100.00;52580.59;5076063;28;20000;-78
2023/01/31 06:16:14;;;;;;;;;;;;;;;-144.99;100.00;52547.97;5084873;28;20365;-79
2023/01/31 06:18:41;;;;;;;;;;;;;;;-144.99;100.00;52537.78;5083847;28;19996;-77
2023/01/31 06:21:07;;;;;;;;;;;;;;;-144.99;100.00;52529.63;5077413;28;19972;-79
2023/01/31 06:23:34;;;;;;;;;;;;;;;-144.99;100.00;52543.91;5081067;28;20059;-77
2023/01/31 06:26:02;;;;;;;;;;;;;;;-144.99;100.00;52578.53;5081818;28;20131;-77
2023/01/31 06:28:29;;;;;;;;;;;;;;;-144.99;99.92;52566.31;5084484;28;20386;-77
2023/01/31 06:31:06;;;;;;;;;;;;;;;-144.99;98.73;52574.47;4960334;28;10000307;-77
2023/01/31 06:33:32;;;;;;;;;;;;;;;-144.99;99.41;52580.59;5069610;28;20011;-81
2023/01/31 06:35:59;;;;;;;;;;;;;;;-144.99;98.69;52552.03;5080631;28;20320;-76
2023/01/31 06:38:26;;;;;;;;;;;;;;;-144.99;98.72;52517.41;5085059;28;20004;-83
2023/01/31 06:40:52;;;;;;;;;;;;;;;-144.99;98.55;52598.94;5103590;28;19955;-77
2023/01/31 06:43:20;;;;;;;;;;;;;;;-144.99;98.39;52586.69;5074862;28;20024;-76
2023/01/31 06:45:48;;;;;;;;;;;;;;;-144.99;98.25;52519.44;5073258;28;20503;-78
2023/01/31 06:48:14;;;;;;;;;;;;;;;-144.99;97.77;52570.38;5083991;28;20413;-77
2023/01/31 06:50:41;;;;;;;;;;;;;;;-144.99;98.64;52545.94;5071508;28;19966;-80
2023/01/31 06:53:07;;;;;;;;;;;;;;;-144.99;98.26;52558.16;5088336;28;20028;-78
2023/01/31 06:55:34;;;;;;;;;;;;;;;-144.99;99.62;52554.09;5088250;28;20068;-76
2023/01/31 06:58:00;;;;;;;;;;;;;;;-144.99;99.60;52560.19;5086937;28;19951;-81
2023/01/31 07:00:28;;;;;;;;;;;;;;;-144.99;98.97;52578.53;5078172;28;20423;-75
2023/01/31 07:02:55;;;;;;;;;;;;;;;-144.99;98.05;52582.63;5071253;28;19943;-76
2023/01/31 07:05:22;;;;;;;;;;;;;;;-144.99;97.90;52574.47;5077167;28;19955;-77
2023/01/31 07:07:48;;;;;;;;;;;;;;;-144.99;98.59;52572.44;5088070;28;19989;-79
2023/01/31 07:10:15;;;;;;;;;;;;;;;-144.99;98.42;52554.09;5079716;28;20362;-74
2023/01/31 07:12:42;;;;;;;;;;;;;;;-144.99;98.28;52562.25;5086622;28;19999;-76
2023/01/31 07:15:09;;;;;;;;;;;;;;;-144.99;97.67;52541.84;5078973;28;20004;-78
2023/01/31 07:17:37;;;;;;;;;;;;;;;-144.99;97.89;52554.09;5079102;28;20306;-76
2023/01/31 07:20:04;;;;;;;;;;;;;;;-144.99;97.96;52556.13;5084021;28;19961;-76
2023/01/31 07:22:30;;;;;;;;;;;;;;;-144.99;97.50;52533.69;5088029;28;19941;-75
2023/01/31 07:24:57;;;;;;;;;;;;;;;-144.99;98.42;52556.13;5088285;28;20006;-81
2023/01/31 07:27:24;;;;;;;;;;;;;;;-144.99;98.35;52570.38;5094498;28;19977;-75
2023/01/31 07:29:50;;;;;;;;;;;;;;;-144.99;97.69;52527.59;5086893;28;20061;-76
2023/01/31 07:32:17;;;;;;;;;;;;;;;-144.99;97.46;52547.97;5076433;28;20008;-77
2023/01/31 07:34:45;;;;;;;;;;;;;;;-144.99;97.70;52529.63;5088930;28;19981;-76
2023/01/31 07:37:11;;;;;;;;;;;;;;;-144.99;98.38;52570.38;5084593;28;19954;-82
2023/01/31 07:39:38;;;;;;;;;;;;;;;-144.99;99.03;52537.78;5086522;28;20110;-78
2023/01/31 07:42:04;;;;;;;;;;;;;;;-144.99;98.82;52568.34;5085035;28;20095;-78
2023/01/31 07:44:31;;;;;;;;;;;;;;;-144.99;97.89;52562.25;5079827;28;20058;-82
2023/01/31 07:46:57;;;;;;;;;;;;;;;-144.99;97.92;52554.09;5096968;28;19975;-86
2023/01/31 07:49:24;;;;;;;;;;;;;;;-144.99;99.03;52545.94;5106282;28;20441;-78
2023/01/31 07:51:51;;;;;;;;;;;;;;;-144.99;99.42;52521.47;5077906;28;20032;-80
2023/01/31 07:54:18;;;;;;;;;;;;;;;-144.99;99.55;52537.78;5083131;28;20540;-78
2023/01/31 07:56:44;;;;;;;;;;;;;;;-144.99;99.25;52529.63;5076593;28;20354;-80
2023/01/31 07:59:12;;;;;;;;;;;;;;;-144.99;99.03;52570.38;5090219;28;20036;-79
2023/01/31 08:04:22;;;;;;;;;;;;;;;-144.99;99.72;52537.78;5086651;28;19955;-79
2023/01/31 08:06:49;;;;;;;;;;;;;;;-144.99;98.99;52562.25;5081368;28;20050;-79
2023/01/31 08:09:17;;;;;;;;;;;;;;;-144.99;99.13;52578.53;5080690;28;20035;-80
2023/01/31 08:11:43;;;;;;;;;;;;;;;-144.99;99.72;52578.53;5084277;28;19988;-76
2023/01/31 08:14:10;;;;;;;;;;;;;;;-144.99;99.92;52578.53;5081987;28;20040;-77
2023/01/31 08:16:36;;;;;;;;;;;;;;;-144.99;99.80;52554.09;5085819;28;20017;-76
2023/01/31 08:19:03;;;;;;;;;;;;;;;-144.99;99.34;52556.13;5081313;28;20391;-78
2023/01/31 08:21:29;;;;;;;;;;;;;;;-144.99;99.34;52545.94;5096752;28;19986;-82
2023/01/31 08:23:56;;;;;;;;;;;;;;;-144.99;100.00;52607.09;5120980;27;20046;-76
2023/01/31 08:26:24;;;;;;;;;;;;;;;-144.99;100.00;52558.16;5082519;28;19931;-78
2023/01/31 08:28:52;;;;;;;;;;;;;;;-144.99;100.00;52533.69;5081658;28;19949;-77
2023/01/31 08:31:20;;;;;;;;;;;;;;;-144.99;99.65;52545.94;5085214;28;19958;-76
2023/01/31 08:33:46;;;;;;;;;;;;;;;-144.99;99.60;52543.91;5084067;28;20405;-81
2023/01/31 08:36:15;;;;;;;;;;;;;;;-144.99;100.00;52558.16;5086321;28;19974;-76
2023/01/31 08:38:41;;;;;;;;;;;;;;;-144.99;100.00;52533.69;5082808;28;20401;-78
2023/01/31 08:41:08;;;;;;;;;;;;;;;-144.99;100.00;52499.06;5084045;28;19956;-79
2023/01/31 08:43:37;;;;;;;;;;;;;;;-144.99;100.00;52545.94;5083937;28;20033;-78
2023/01/31 08:46:04;;;;;;;;;;;;;;;-144.99;100.00;52566.31;5085252;28;20027;-77
2023/01/31 08:48:32;;;;;;;;;;;;;;;-144.99;100.00;52554.09;5077469;28;20400;-78
2023/01/31 08:51:00;;;;;;;;;;;;;;;-144.99;100.00;52580.59;5076595;28;20390;-78
2023/01/31 08:53:26;;;;;;;;;;;;;;;-144.99;100.00;52509.25;5076422;28;20031;-75
2023/01/31 08:55:52;;;;;;;;;;;;;;;-144.99;100.00;52547.97;5085210;28;19977;-84
2023/01/31 08:58:19;;;;;;;;;;;;;;;-144.99;100.00;52562.25;5108123;28;19943;-77
2023/01/31 09:00:47;;;;;;;;;;;;;;;-144.99;100.00;52537.78;5082650;22;19990;-76
2023/01/31 09:03:15;;;;;;;;;;;;;;;-144.99;100.00;52566.31;5064824;28;19947;-76
2023/01/31 09:05:42;;;;;;;;;;;;;;;-144.99;100.00;52586.69;5097019;28;19974;-77
2023/01/31 09:08:08;;;;;;;;;;;;;;;-144.99;100.00;52545.94;5078347;28;20047;-76
2023/01/31 09:10:35;;;;;;;;;;;;;;;-144.99;100.00;52501.09;5060088;28;20010;-75
2023/01/31 09:13:01;;;;;;;;;;;;;;;-144.99;100.00;52517.41;5044897;28;19995;-77
2023/01/31 09:15:28;;;;;;;;;;;;;;;-144.99;100.00;52541.84;5040746;28;20056;-76
2023/01/31 09:17:56;;;;;;;;;;;;;;;-144.99;100.00;52592.81;5045058;28;20494;-75
2023/01/31 09:20:22;;;;;;;;;;;;;;;-144.99;100.00;52537.78;5044844;28;20531;-76
2023/01/31 09:22:49;;;;;;;;;;;;;;;-144.99;100.00;52501.09;5044731;28;20003;-76
2023/01/31 09:25:15;;;;;;;;;;;;;;;-144.99;100.00;52525.56;5049442;28;20036;-76
2023/01/31 09:27:42;;;;;;;;;;;;;;;-144.99;100.00;52556.13;5046239;28;19978;-75
2023/01/31 09:30:09;;;;;;;;;;;;;;;-144.99;100.00;52564.28;5046201;28;20445;-75
2023/01/31 09:32:37;;;;;;;;;;;;;;;-144.99;100.00;52545.94;5046476;28;19994;-77
2023/01/31 09:35:05;;;;;;;;;;;;;;;-144.99;100.00;52529.63;5051339;28;20410;-76
2023/01/31 09:37:32;;;;;;;;;;;;;;;-144.99;100.00;52558.16;5054639;28;19939;-74
2023/01/31 09:39:58;;;;;;;;;;;;;;;-144.99;100.00;52537.78;5047443;28;19986;-76
2023/01/31 09:42:29;;;;;;;;;;;;;;;-144.99;100.00;52550.00;5056053;28;19925;-77
2023/01/31 09:44:58;;;;;;;;;;;;;;;-144.99;100.00;52525.56;5070134;28;19927;-76
2023/01/31 09:47:27;;;;;;;;;;;;;;;-144.99;100.00;52562.25;5045164;28;20495;-76
2023/01/31 09:49:57;;;;;;;;;;;;;;;-144.99;100.00;52586.69;5044427;28;19954;-74
2023/01/31 09:52:26;;;;;;;;;;;;;;;-144.99;100.00;52558.16;5044935;28;20599;-78
2023/01/31 09:54:52;;;;;;;;;;;;;;;-144.99;100.00;52570.38;5046689;28;19945;-75
2023/01/31 09:57:26;;;;;;;;;;;;;;;-144.99;100.00;52529.63;5045448;28;20370;-75
2023/01/31 09:59:57;;;;;;;;;;;;;;;-144.99;100.00;52541.84;5044711;28;19951;-76
2023/01/31 10:02:31;;;;;;;;;;;;;;;-144.99;100.00;52521.47;5045862;28;20463;-74
2023/01/31 10:05:06;;;;;;;;;;;;;;;-144.99;100.00;52523.50;5043310;28;19973;-75
2023/01/31 10:07:36;;;;;;;;;;;;;;;-144.99;100.00;52570.38;5048189;28;19979;-74
2023/01/31 10:10:12;;;;;;;;;;;;;;;-144.99;100.00;52560.19;5045089;28;19948;-76
2023/01/31 10:12:43;;;;;;;;;;;;;;;-144.99;100.00;52558.16;5045752;28;19998;-76
2023/01/31 10:15:13;;;;;;;;;;;;;;;-144.99;100.00;52582.63;5043234;28;20373;-75
2023/01/31 10:17:42;;;;;;;;;;;;;;;-144.99;100.00;52566.31;5046384;28;19943;-76
2023/01/31 10:20:17;;;;;;;;;;;;;;;-144.99;100.00;52537.78;5051083;28;19988;-77
2023/01/31 10:22:47;;;;;;;;;;;;;;;-144.99;100.00;52566.31;5073870;28;19953;-77
2023/01/31 10:25:19;;;;;;;;;;;;;;;-144.99;100.00;52517.41;5053747;28;19990;-76
2023/01/31 10:27:48;;;;;;;;;;;;;;;-144.99;100.00;52517.41;5045372;28;20022;-76
2023/01/31 10:30:18;;;;;;;;;;;;;;;-144.99;100.00;52558.16;5048677;28;19967;-76
2023/01/31 10:32:47;;;;;;;;;;;;;;;-144.99;100.00;52521.47;5048581;28;20523;-77
2023/01/31 10:35:16;;;;;;;;;;;;;;;-144.99;100.00;52543.91;5048535;28;19948;-76
2023/01/31 10:37:46;;;;;;;;;;;;;;;-144.99;100.00;52521.47;5049519;28;20389;-76
2023/01/31 10:40:15;;;;;;;;;;;;;;;-144.99;100.00;52558.16;5049417;28;20071;-76
2023/01/31 10:42:44;;;;;;;;;;;;;;;-144.99;100.00;52529.63;5049792;28;20136;-75
2023/01/31 10:45:15;;;;;;;;;;;;;;;-144.99;100.00;52572.44;5049391;28;19951;-76
2023/01/31 10:47:46;;;;;;;;;;;;;;;-144.99;100.00;52560.19;5056713;28;20059;-76
2023/01/31 10:50:14;;;;;;;;;;;;;;;-144.99;100.00;52564.28;5049754;28;20039;-76
2023/01/31 10:52:49;;;;;;;;;;;;;;;-144.99;100.00;52521.47;5052644;28;20622;-75
2023/01/31 10:55:25;;;;;;;;;;;;;;;-144.99;100.00;52525.56;5047625;28;20366;-76
2023/01/31 10:57:52;;;;;;;;;;;;;;;-144.99;100.00;52511.28;5049691;28;20051;-76
2023/01/31 11:00:20;;;;;;;;;;;;;;;-144.99;100.00;52554.09;5074742;28;20001;-78
2023/01/31 11:02:47;;;;;;;;;;;;;;;-144.99;100.00;52537.78;5058103;28;19996;-75
2023/01/31 11:05:16;;;;;;;;;;;;;;;-144.99;100.00;52562.25;5057625;28;20149;-75
2023/01/31 11:07:43;;;;;;;;;;;;;;;-144.99;100.00;52523.50;5048595;28;20003;-76
2023/01/31 11:10:20;;;;;;;;;;;;;;;-144.99;100.00;52554.09;5048525;28;19982;-73
2023/01/31 11:12:54;;;;;;;;;;;;;;;-144.99;100.00;52545.94;5066542;28;19944;-75
2023/01/31 11:15:23;;;;;;;;;;;;;;;-144.99;100.00;52537.78;5069623;28;19944;-75
2023/01/31 11:17:49;;;;;;;;;;;;;;;-144.99;100.00;52517.41;5066707;28;19949;-74
2023/01/31 11:20:21;;;;;;;;;;;;;;;-144.99;100.00;52533.69;5070899;28;19958;-75
2023/01/31 11:22:49;;;;;;;;;;;;;;;-144.99;100.00;52507.19;5064048;28;19938;-74
2023/01/31 11:25:18;;;;;;;;;;;;;;;-144.99;100.00;52525.56;5063205;28;19939;-76
2023/01/31 11:27:49;;;;;;;;;;;;;;;-144.99;100.00;52529.63;4810347;28;10000058;-74
2023/01/31 11:30:22;;;;;;;;;;;;;;;-144.99;100.00;52509.25;5066908;28;19978;-74
2023/01/31 11:32:49;;;;;;;;;;;;;;;-144.99;100.00;52517.41;5059016;28;20015;-75
2023/01/31 11:35:26;;;;;;;;;;;;;;;-144.99;100.00;52529.63;5060640;28;19944;-75
2023/01/31 11:37:54;;;;;;;;;;;;;;;-144.99;100.00;52509.25;5069453;28;19959;-75
2023/01/31 11:40:22;;;;;;;;;;;;;;;-144.99;100.00;52545.94;5071398;28;19964;-74
2023/01/31 11:42:52;;;;;;;;;;;;;;;-144.99;100.00;52545.94;5046625;28;20784;-76
2023/01/31 11:45:19;;;;;;;;;;;;;;;-144.99;100.00;52509.25;5045236;28;20039;-74
2023/01/31 11:47:50;;;;;;;;;;;;;;;-144.99;100.00;52552.03;5045593;28;19964;-74
2023/01/31 11:50:19;;;;;;;;;;;;;;;-144.99;100.00;52505.16;5044269;28;20511;-74
2023/01/31 11:52:46;;;;;;;;;;;;;;;-144.99;100.00;52574.47;5041199;28;19943;-75
2023/01/31 11:55:17;;;;;;;;;;;;;;;-144.99;100.00;52525.56;5046400;28;20722;-74
2023/01/31 11:57:44;;;;;;;;;;;;;;;-144.99;100.00;52488.84;5046749;28;19991;-75
2023/01/31 12:00:20;;;;;;;;;;;;;;;-144.99;100.00;52488.84;5045643;28;19975;-74
2023/01/31 12:02:52;;;;;;;;;;;;;;;-144.99;100.00;52541.84;5049269;28;19925;-74
2023/01/31 12:05:19;;;;;;;;;;;;;;;-144.99;100.00;52556.13;5046650;28;19987;-74
2023/01/31 12:07:46;;;;;;;;;;;;;;;-144.99;100.00;52523.50;5045371;28;20068;-75
2023/01/31 12:10:32;;;;;;;;;;;;;;;-144.99;100.00;52547.97;5044174;28;20020;-73
2023/01/31 12:12:59;;;;;;;;;;;;;;;-144.99;100.00;52537.78;5045487;28;20355;-74
2023/01/31 12:15:28;;;;;;;;;;;;;;;-144.99;100.00;52570.38;5047936;28;19926;-78
2023/01/31 12:17:56;;;;;;;;;;;;;;;-144.99;100.00;52509.25;5066215;28;20000;-77
2023/01/31 12:20:31;;;;;;;;;;;;;;;-144.99;100.00;52537.78;5048496;28;19968;-75
2023/01/31 12:23:02;;;;;;;;;;;;;;;-144.99;100.00;52556.13;5046109;28;19979;-75
2023/01/31 12:25:38;;;;;;;;;;;;;;;-144.99;100.00;52484.78;5046679;28;19943;-75
2023/01/31 12:28:09;;;;;;;;;;;;;;;-144.99;100.00;52501.09;5046314;28;20393;-74
2023/01/31 12:30:56;;;;;;;;;;;;;;;-144.99;100.00;52484.78;5045843;28;20050;-74
2023/01/31 12:33:34;;;;;;;;;;;;;;;-144.99;100.00;52501.09;5045063;28;20446;-74
2023/01/31 12:36:14;;;;;;;;;;;;;;;-144.99;100.00;52505.16;5043507;28;20023;-74
2023/01/31 12:38:54;;;;;;;;;;;;;;;-144.99;100.00;52513.31;5047088;28;19946;-75